sensor_id;sensor_type;location;lat;lon;timestamp;P1;durP1;ratioP1;P2;durP2;ratioP2
22937;SDS011;11634;42.734;23.298;2023-10-13T00:01:53;12.20;;;9.07;;
22937;SDS011;11634;42.734;23.298;2023-10-13T00:04:20;16.70;;;9.05;;
22937;SDS011;11634;42.734;23.298;2023-10-13T00:06:50;14.73;;;9.50;;
22937;SDS011;11634;42.734;23.298;2023-10-13T00:09:15;16.38;;;9.55;;
22937;SDS011;11634;42.734;23.298;2023-10-13T00:11:42;12.10;;;8.55;;
22937;SDS011;11634;42.734;23.298;2023-10-13T00:14:10;14.52;;;8.95;;
22937;SDS011;11634;42.734;23.298;2023-10-13T00:16:36;12.98;;;9.40;;
22937;SDS011;11634;42.734;23.298;2023-10-13T00:19:05;14.00;;;9.18;;
22937;SDS011;11634;42.734;23.298;2023-10-13T00:21:31;14.25;;;9.57;;
22937;SDS011;11634;42.734;23.298;2023-10-13T00:23:57;13.05;;;9.75;;
22937;SDS011;11634;42.734;23.298;2023-10-13T00:26:24;13.73;;;9.77;;
22937;SDS011;11634;42.734;23.298;2023-10-13T00:28:57;15.02;;;9.48;;
22937;SDS011;11634;42.734;23.298;2023-10-13T00:31:36;13.20;;;9.15;;
22937;SDS011;11634;42.734;23.298;2023-10-13T00:34:03;18.33;;;9.77;;
22937;SDS011;11634;42.734;23.298;2023-10-13T00:36:37;10.38;;;8.65;;
22937;SDS011;11634;42.734;23.298;2023-10-13T00:39:13;19.77;;;9.50;;
22937;SDS011;11634;42.734;23.298;2023-10-13T00:41:44;15.38;;;9.43;;
22937;SDS011;11634;42.734;23.298;2023-10-13T00:44:23;12.65;;;9.15;;
22937;SDS011;11634;42.734;23.298;2023-10-13T00:47:03;12.77;;;9.55;;
22937;SDS011;11634;42.734;23.298;2023-10-13T00:49:33;15.57;;;9.93;;
22937;SDS011;11634;42.734;23.298;2023-10-13T00:52:01;15.20;;;9.18;;
22937;SDS011;11634;42.734;23.298;2023-10-13T00:54:27;14.05;;;9.88;;
22937;SDS011;11634;42.734;23.298;2023-10-13T00:56:53;15.20;;;9.52;;
22937;SDS011;11634;42.734;23.298;2023-10-13T00:59:30;12.05;;;9.70;;
22937;SDS011;11634;42.734;23.298;2023-10-13T01:02:06;14.35;;;9.85;;
22937;SDS011;11634;42.734;23.298;2023-10-13T01:05:08;16.58;;;9.65;;
22937;SDS011;11634;42.734;23.298;2023-10-13T01:07:44;12.57;;;9.57;;
22937;SDS011;11634;42.734;23.298;2023-10-13T01:10:11;16.38;;;10.20;;
22937;SDS011;11634;42.734;23.298;2023-10-13T01:12:39;10.70;;;8.95;;
22937;SDS011;11634;42.734;23.298;2023-10-13T01:15:09;12.48;;;9.52;;
22937;SDS011;11634;42.734;23.298;2023-10-13T01:17:36;13.30;;;9.88;;
22937;SDS011;11634;42.734;23.298;2023-10-13T01:20:02;19.05;;;11.10;;
22937;SDS011;11634;42.734;23.298;2023-10-13T01:22:30;13.55;;;8.85;;
22937;SDS011;11634;42.734;23.298;2023-10-13T01:24:57;15.43;;;9.35;;
22937;SDS011;11634;42.734;23.298;2023-10-13T01:27:31;16.27;;;9.82;;
22937;SDS011;11634;42.734;23.298;2023-10-13T01:29:57;15.48;;;9.38;;
22937;SDS011;11634;42.734;23.298;2023-10-13T01:32:31;16.30;;;10.30;;
22937;SDS011;11634;42.734;23.298;2023-10-13T01:34:56;17.88;;;11.90;;
22937;SDS011;11634;42.734;23.298;2023-10-13T01:37:25;14.57;;;10.30;;
22937;SDS011;11634;42.734;23.298;2023-10-13T01:39:50;20.35;;;10.90;;
22937;SDS011;11634;42.734;23.298;2023-10-13T01:42:16;13.77;;;9.95;;
22937;SDS011;11634;42.734;23.298;2023-10-13T01:44:49;14.60;;;10.07;;
22937;SDS011;11634;42.734;23.298;2023-10-13T01:47:15;16.90;;;10.93;;
22937;SDS011;11634;42.734;23.298;2023-10-13T01:49:43;16.33;;;10.70;;
22937;SDS011;11634;42.734;23.298;2023-10-13T01:52:12;15.45;;;11.20;;
22937;SDS011;11634;42.734;23.298;2023-10-13T01:54:41;12.40;;;10.02;;
22937;SDS011;11634;42.734;23.298;2023-10-13T01:57:09;15.40;;;11.45;;
22937;SDS011;11634;42.734;23.298;2023-10-13T01:59:45;14.77;;;10.65;;
22937;SDS011;11634;42.734;23.298;2023-10-13T02:02:13;18.35;;;10.63;;
22937;SDS011;11634;42.734;23.298;2023-10-13T02:04:40;13.95;;;10.57;;
22937;SDS011;11634;42.734;23.298;2023-10-13T02:07:15;13.00;;;10.27;;
22937;SDS011;11634;42.734;23.298;2023-10-13T02:09:41;17.80;;;10.00;;
22937;SDS011;11634;42.734;23.298;2023-10-13T02:12:08;13.50;;;9.75;;
22937;SDS011;11634;42.734;23.298;2023-10-13T02:14:35;15.82;;;10.90;;
22937;SDS011;11634;42.734;23.298;2023-10-13T02:17:03;17.92;;;11.25;;
22937;SDS011;11634;42.734;23.298;2023-10-13T02:19:38;18.83;;;10.68;;
22937;SDS011;11634;42.734;23.298;2023-10-13T02:22:08;18.02;;;10.73;;
22937;SDS011;11634;42.734;23.298;2023-10-13T02:24:35;16.83;;;10.27;;
22937;SDS011;11634;42.734;23.298;2023-10-13T02:27:07;17.42;;;10.43;;
22937;SDS011;11634;42.734;23.298;2023-10-13T02:29:42;19.35;;;10.75;;
22937;SDS011;11634;42.734;23.298;2023-10-13T02:32:11;14.73;;;9.98;;
22937;SDS011;11634;42.734;23.298;2023-10-13T02:34:44;13.40;;;10.32;;
22937;SDS011;11634;42.734;23.298;2023-10-13T02:37:10;16.63;;;11.30;;
22937;SDS011;11634;42.734;23.298;2023-10-13T02:39:36;15.38;;;9.57;;
22937;SDS011;11634;42.734;23.298;2023-10-13T02:42:04;14.88;;;9.80;;
22937;SDS011;11634;42.734;23.298;2023-10-13T02:44:32;11.63;;;8.55;;
22937;SDS011;11634;42.734;23.298;2023-10-13T02:46:59;18.65;;;11.05;;
22937;SDS011;11634;42.734;23.298;2023-10-13T02:49:27;20.23;;;11.35;;
22937;SDS011;11634;42.734;23.298;2023-10-13T02:51:58;15.30;;;11.30;;
22937;SDS011;11634;42.734;23.298;2023-10-13T02:54:28;15.32;;;11.13;;
22937;SDS011;11634;42.734;23.298;2023-10-13T02:56:56;14.13;;;11.55;;
22937;SDS011;11634;42.734;23.298;2023-10-13T02:59:25;18.65;;;11.35;;
22937;SDS011;11634;42.734;23.298;2023-10-13T03:02:07;15.73;;;9.70;;
22937;SDS011;11634;42.734;23.298;2023-10-13T03:04:53;14.90;;;10.10;;
22937;SDS011;11634;42.734;23.298;2023-10-13T03:07:42;14.68;;;10.40;;
22937;SDS011;11634;42.734;23.298;2023-10-13T03:10:08;13.18;;;10.48;;
22937;SDS011;11634;42.734;23.298;2023-10-13T03:12:37;17.00;;;10.02;;
22937;SDS011;11634;42.734;23.298;2023-10-13T03:15:03;16.50;;;11.25;;
22937;SDS011;11634;42.734;23.298;2023-10-13T03:17:42;13.25;;;10.68;;
22937;SDS011;11634;42.734;23.298;2023-10-13T03:20:11;14.57;;;10.55;;
22937;SDS011;11634;42.734;23.298;2023-10-13T03:22:39;13.07;;;10.73;;
22937;SDS011;11634;42.734;23.298;2023-10-13T03:25:06;12.77;;;10.82;;
22937;SDS011;11634;42.734;23.298;2023-10-13T03:27:34;15.95;;;11.02;;
22937;SDS011;11634;42.734;23.298;2023-10-13T03:30:13;13.63;;;10.57;;
22937;SDS011;11634;42.734;23.298;2023-10-13T03:32:40;15.02;;;10.60;;
22937;SDS011;11634;42.734;23.298;2023-10-13T03:35:14;17.25;;;11.40;;
22937;SDS011;11634;42.734;23.298;2023-10-13T03:37:49;18.67;;;10.70;;
22937;SDS011;11634;42.734;23.298;2023-10-13T03:40:15;13.75;;;10.77;;
22937;SDS011;11634;42.734;23.298;2023-10-13T03:42:47;17.30;;;11.00;;
22937;SDS011;11634;42.734;23.298;2023-10-13T03:45:27;17.63;;;10.82;;
22937;SDS011;11634;42.734;23.298;2023-10-13T03:47:54;17.80;;;11.90;;
22937;SDS011;11634;42.734;23.298;2023-10-13T03:50:19;22.67;;;11.93;;
22937;SDS011;11634;42.734;23.298;2023-10-13T03:52:55;15.68;;;11.32;;
22937;SDS011;11634;42.734;23.298;2023-10-13T03:55:24;14.40;;;10.98;;
22937;SDS011;11634;42.734;23.298;2023-10-13T03:57:52;19.45;;;12.35;;
22937;SDS011;11634;42.734;23.298;2023-10-13T04:00:18;16.48;;;11.75;;
22937;SDS011;11634;42.734;23.298;2023-10-13T04:02:52;22.50;;;11.32;;
22937;SDS011;11634;42.734;23.298;2023-10-13T04:05:40;19.27;;;11.40;;
22937;SDS011;11634;42.734;23.298;2023-10-13T04:08:07;18.23;;;12.38;;
22937;SDS011;11634;42.734;23.298;2023-10-13T04:10:52;24.50;;;12.35;;
22937;SDS011;11634;42.734;23.298;2023-10-13T04:13:17;14.95;;;10.68;;
22937;SDS011;11634;42.734;23.298;2023-10-13T04:16:02;15.65;;;10.77;;
22937;SDS011;11634;42.734;23.298;2023-10-13T04:19:02;14.85;;;11.10;;
22937;SDS011;11634;42.734;23.298;2023-10-13T04:21:28;19.70;;;11.55;;
22937;SDS011;11634;42.734;23.298;2023-10-13T04:24:11;16.52;;;11.02;;
22937;SDS011;11634;42.734;23.298;2023-10-13T04:26:43;17.80;;;11.90;;
22937;SDS011;11634;42.734;23.298;2023-10-13T04:29:16;17.40;;;11.93;;
22937;SDS011;11634;42.734;23.298;2023-10-13T04:31:55;20.08;;;11.43;;
22937;SDS011;11634;42.734;23.298;2023-10-13T04:34:28;12.23;;;9.95;;
22937;SDS011;11634;42.734;23.298;2023-10-13T04:36:59;17.02;;;11.05;;
22937;SDS011;11634;42.734;23.298;2023-10-13T04:39:44;27.98;;;11.85;;
22937;SDS011;11634;42.734;23.298;2023-10-13T04:42:10;16.58;;;11.00;;
22937;SDS011;11634;42.734;23.298;2023-10-13T04:45:01;22.52;;;11.23;;
22937;SDS011;11634;42.734;23.298;2023-10-13T04:47:41;17.63;;;10.85;;
22937;SDS011;11634;42.734;23.298;2023-10-13T04:50:13;19.55;;;10.95;;
22937;SDS011;11634;42.734;23.298;2023-10-13T04:52:48;19.40;;;10.32;;
22937;SDS011;11634;42.734;23.298;2023-10-13T04:55:26;16.30;;;10.48;;
22937;SDS011;11634;42.734;23.298;2023-10-13T04:58:00;28.80;;;11.02;;
22937;SDS011;11634;42.734;23.298;2023-10-13T05:00:39;26.98;;;11.38;;
22937;SDS011;11634;42.734;23.298;2023-10-13T05:03:23;15.32;;;10.45;;
22937;SDS011;11634;42.734;23.298;2023-10-13T05:06:07;19.65;;;12.32;;
22937;SDS011;11634;42.734;23.298;2023-10-13T05:08:38;20.85;;;12.35;;
22937;SDS011;11634;42.734;23.298;2023-10-13T05:11:39;18.85;;;12.02;;
22937;SDS011;11634;42.734;23.298;2023-10-13T05:14:24;21.42;;;11.85;;
22937;SDS011;11634;42.734;23.298;2023-10-13T05:17:10;18.83;;;12.52;;
22937;SDS011;11634;42.734;23.298;2023-10-13T05:19:56;23.67;;;12.90;;
22937;SDS011;11634;42.734;23.298;2023-10-13T05:22:40;27.85;;;12.82;;
22937;SDS011;11634;42.734;23.298;2023-10-13T05:25:23;29.15;;;13.20;;
22937;SDS011;11634;42.734;23.298;2023-10-13T05:28:21;18.95;;;13.05;;
22937;SDS011;11634;42.734;23.298;2023-10-13T05:31:06;21.02;;;12.52;;
22937;SDS011;11634;42.734;23.298;2023-10-13T05:33:50;21.85;;;11.55;;
22937;SDS011;11634;42.734;23.298;2023-10-13T05:36:34;19.48;;;11.23;;
22937;SDS011;11634;42.734;23.298;2023-10-13T05:39:19;35.30;;;12.75;;
22937;SDS011;11634;42.734;23.298;2023-10-13T05:42:03;18.25;;;12.30;;
22937;SDS011;11634;42.734;23.298;2023-10-13T05:44:47;24.83;;;15.10;;
22937;SDS011;11634;42.734;23.298;2023-10-13T05:47:32;19.77;;;14.48;;
22937;SDS011;11634;42.734;23.298;2023-10-13T05:50:19;26.83;;;13.68;;
22937;SDS011;11634;42.734;23.298;2023-10-13T05:52:47;26.00;;;14.73;;
22937;SDS011;11634;42.734;23.298;2023-10-13T05:55:19;25.20;;;17.05;;
22937;SDS011;11634;42.734;23.298;2023-10-13T05:58:03;18.60;;;13.60;;
22937;SDS011;11634;42.734;23.298;2023-10-13T06:00:58;26.73;;;13.10;;
22937;SDS011;11634;42.734;23.298;2023-10-13T06:03:42;23.98;;;12.32;;
22937;SDS011;11634;42.734;23.298;2023-10-13T06:06:26;16.85;;;12.27;;
22937;SDS011;11634;42.734;23.298;2023-10-13T06:09:10;18.08;;;12.23;;
22937;SDS011;11634;42.734;23.298;2023-10-13T06:11:54;15.25;;;12.15;;
22937;SDS011;11634;42.734;23.298;2023-10-13T06:14:38;17.48;;;12.07;;
22937;SDS011;11634;42.734;23.298;2023-10-13T06:17:22;14.65;;;11.38;;
22937;SDS011;11634;42.734;23.298;2023-10-13T06:20:06;20.00;;;12.43;;
22937;SDS011;11634;42.734;23.298;2023-10-13T06:22:51;18.10;;;12.27;;
22937;SDS011;11634;42.734;23.298;2023-10-13T06:25:34;14.13;;;12.63;;
22937;SDS011;11634;42.734;23.298;2023-10-13T06:28:18;17.63;;;13.05;;
22937;SDS011;11634;42.734;23.298;2023-10-13T06:31:04;17.35;;;13.35;;
22937;SDS011;11634;42.734;23.298;2023-10-13T06:33:31;21.15;;;12.07;;
22937;SDS011;11634;42.734;23.298;2023-10-13T06:35:59;16.70;;;12.43;;
22937;SDS011;11634;42.734;23.298;2023-10-13T06:38:25;15.13;;;11.65;;
22937;SDS011;11634;42.734;23.298;2023-10-13T06:40:56;15.57;;;12.15;;
22937;SDS011;11634;42.734;23.298;2023-10-13T06:43:21;17.48;;;12.25;;
22937;SDS011;11634;42.734;23.298;2023-10-13T06:45:49;15.13;;;11.93;;
22937;SDS011;11634;42.734;23.298;2023-10-13T06:48:26;18.80;;;12.60;;
22937;SDS011;11634;42.734;23.298;2023-10-13T06:50:55;19.90;;;11.70;;
22937;SDS011;11634;42.734;23.298;2023-10-13T06:53:21;20.80;;;12.77;;
22937;SDS011;11634;42.734;23.298;2023-10-13T06:55:47;24.50;;;12.68;;
22937;SDS011;11634;42.734;23.298;2023-10-13T06:58:14;26.83;;;13.60;;
22937;SDS011;11634;42.734;23.298;2023-10-13T07:00:40;21.23;;;12.85;;
22937;SDS011;11634;42.734;23.298;2023-10-13T07:03:06;24.35;;;14.73;;
22937;SDS011;11634;42.734;23.298;2023-10-13T07:05:40;25.27;;;16.13;;
22937;SDS011;11634;42.734;23.298;2023-10-13T07:08:10;30.98;;;18.63;;
22937;SDS011;11634;42.734;23.298;2023-10-13T07:11:00;35.70;;;20.55;;
22937;SDS011;11634;42.734;23.298;2023-10-13T07:13:30;26.73;;;21.40;;
22937;SDS011;11634;42.734;23.298;2023-10-13T07:15:56;31.10;;;23.88;;
22937;SDS011;11634;42.734;23.298;2023-10-13T07:18:33;32.42;;;23.55;;
22937;SDS011;11634;42.734;23.298;2023-10-13T07:21:16;28.13;;;21.58;;
22937;SDS011;11634;42.734;23.298;2023-10-13T07:23:42;29.42;;;19.75;;
22937;SDS011;11634;42.734;23.298;2023-10-13T07:26:21;24.15;;;17.50;;
22937;SDS011;11634;42.734;23.298;2023-10-13T07:28:48;21.05;;;17.05;;
22937;SDS011;11634;42.734;23.298;2023-10-13T07:31:17;24.40;;;17.38;;
22937;SDS011;11634;42.734;23.298;2023-10-13T07:33:44;27.88;;;17.65;;
22937;SDS011;11634;42.734;23.298;2023-10-13T07:36:13;23.95;;;16.77;;
22937;SDS011;11634;42.734;23.298;2023-10-13T07:38:46;21.88;;;15.90;;
22937;SDS011;11634;42.734;23.298;2023-10-13T07:41:26;27.35;;;15.35;;
22937;SDS011;11634;42.734;23.298;2023-10-13T07:43:55;25.38;;;16.17;;
22937;SDS011;11634;42.734;23.298;2023-10-13T07:46:22;25.45;;;16.83;;
22937;SDS011;11634;42.734;23.298;2023-10-13T07:48:55;26.35;;;15.88;;
22937;SDS011;11634;42.734;23.298;2023-10-13T07:51:39;28.58;;;16.38;;
22937;SDS011;11634;42.734;23.298;2023-10-13T07:54:14;23.27;;;14.65;;
22937;SDS011;11634;42.734;23.298;2023-10-13T07:56:47;20.98;;;15.52;;
22937;SDS011;11634;42.734;23.298;2023-10-13T07:59:12;27.25;;;15.80;;
22937;SDS011;11634;42.734;23.298;2023-10-13T08:01:43;28.15;;;15.18;;
22937;SDS011;11634;42.734;23.298;2023-10-13T08:04:09;18.70;;;14.85;;
22937;SDS011;11634;42.734;23.298;2023-10-13T08:06:48;23.17;;;14.68;;
22937;SDS011;11634;42.734;23.298;2023-10-13T08:09:14;23.55;;;16.33;;
22937;SDS011;11634;42.734;23.298;2023-10-13T08:12:05;20.42;;;15.85;;
22937;SDS011;11634;42.734;23.298;2023-10-13T08:14:32;22.45;;;15.52;;
22937;SDS011;11634;42.734;23.298;2023-10-13T08:17:03;20.45;;;15.48;;
22937;SDS011;11634;42.734;23.298;2023-10-13T08:19:33;34.25;;;15.73;;
22937;SDS011;11634;42.734;23.298;2023-10-13T08:22:05;25.73;;;14.63;;
22937;SDS011;11634;42.734;23.298;2023-10-13T08:24:43;26.88;;;15.63;;
22937;SDS011;11634;42.734;23.298;2023-10-13T08:27:09;18.67;;;13.82;;
22937;SDS011;11634;42.734;23.298;2023-10-13T08:29:58;26.45;;;13.55;;
22937;SDS011;11634;42.734;23.298;2023-10-13T08:32:24;20.48;;;12.93;;
22937;SDS011;11634;42.734;23.298;2023-10-13T08:35:02;30.85;;;23.73;;
22937;SDS011;11634;42.734;23.298;2023-10-13T08:37:30;21.00;;;14.20;;
22937;SDS011;11634;42.734;23.298;2023-10-13T08:40:14;23.08;;;15.82;;
22937;SDS011;11634;42.734;23.298;2023-10-13T08:42:58;22.05;;;14.57;;
22937;SDS011;11634;42.734;23.298;2023-10-13T08:45:28;28.50;;;15.82;;
22937;SDS011;11634;42.734;23.298;2023-10-13T08:50:36;29.30;;;15.18;;
22937;SDS011;11634;42.734;23.298;2023-10-13T08:53:21;22.42;;;14.27;;
22937;SDS011;11634;42.734;23.298;2023-10-13T08:55:56;26.00;;;14.85;;
22937;SDS011;11634;42.734;23.298;2023-10-13T08:58:28;21.65;;;13.60;;
22937;SDS011;11634;42.734;23.298;2023-10-13T09:01:12;25.90;;;12.90;;
22937;SDS011;11634;42.734;23.298;2023-10-13T09:03:39;25.27;;;13.18;;
22937;SDS011;11634;42.734;23.298;2023-10-13T09:06:18;24.13;;;12.88;;
22937;SDS011;11634;42.734;23.298;2023-10-13T09:08:45;19.73;;;12.75;;
22937;SDS011;11634;42.734;23.298;2023-10-13T09:11:31;19.40;;;12.95;;
22937;SDS011;11634;42.734;23.298;2023-10-13T09:14:14;24.33;;;13.73;;
22937;SDS011;11634;42.734;23.298;2023-10-13T09:17:04;23.10;;;12.63;;
22937;SDS011;11634;42.734;23.298;2023-10-13T09:19:42;23.58;;;12.77;;
22937;SDS011;11634;42.734;23.298;2023-10-13T09:22:23;20.58;;;12.32;;
22937;SDS011;11634;42.734;23.298;2023-10-13T09:24:58;20.48;;;12.23;;
22937;SDS011;11634;42.734;23.298;2023-10-13T09:27:25;18.67;;;11.70;;
22937;SDS011;11634;42.734;23.298;2023-10-13T09:29:58;16.73;;;10.43;;
22937;SDS011;11634;42.734;23.298;2023-10-13T09:32:35;22.55;;;11.35;;
22937;SDS011;11634;42.734;23.298;2023-10-13T09:35:20;25.50;;;11.40;;
22937;SDS011;11634;42.734;23.298;2023-10-13T09:37:52;20.48;;;11.68;;
22937;SDS011;11634;42.734;23.298;2023-10-13T09:40:21;23.10;;;11.95;;
22937;SDS011;11634;42.734;23.298;2023-10-13T09:42:54;26.67;;;11.90;;
22937;SDS011;11634;42.734;23.298;2023-10-13T09:45:28;20.60;;;11.95;;
22937;SDS011;11634;42.734;23.298;2023-10-13T09:48:12;14.02;;;9.77;;
22937;SDS011;11634;42.734;23.298;2023-10-13T09:50:47;18.05;;;10.05;;
22937;SDS011;11634;42.734;23.298;2023-10-13T09:53:16;16.83;;;9.18;;
22937;SDS011;11634;42.734;23.298;2023-10-13T09:58:26;17.63;;;9.50;;
22937;SDS011;11634;42.734;23.298;2023-10-13T10:00:54;13.88;;;8.05;;
22937;SDS011;11634;42.734;23.298;2023-10-13T10:03:23;11.38;;;7.55;;
22937;SDS011;11634;42.734;23.298;2023-10-13T10:06:05;12.38;;;7.53;;
22937;SDS011;11634;42.734;23.298;2023-10-13T10:09:03;10.82;;;7.47;;
22937;SDS011;11634;42.734;23.298;2023-10-13T10:16:59;14.88;;;7.10;;
22937;SDS011;11634;42.734;23.298;2023-10-13T10:19:26;12.45;;;6.20;;
22937;SDS011;11634;42.734;23.298;2023-10-13T10:22:04;10.63;;;6.15;;
22937;SDS011;11634;42.734;23.298;2023-10-13T10:24:42;13.75;;;6.70;;
22937;SDS011;11634;42.734;23.298;2023-10-13T10:27:09;13.13;;;6.20;;
22937;SDS011;11634;42.734;23.298;2023-10-13T10:29:57;11.65;;;6.35;;
22937;SDS011;11634;42.734;23.298;2023-10-13T10:32:34;9.52;;;5.28;;
22937;SDS011;11634;42.734;23.298;2023-10-13T10:35:09;11.80;;;5.03;;
22937;SDS011;11634;42.734;23.298;2023-10-13T10:37:46;11.45;;;5.50;;
22937;SDS011;11634;42.734;23.298;2023-10-13T10:40:15;9.93;;;5.63;;
22937;SDS011;11634;42.734;23.298;2023-10-13T10:43:12;8.20;;;5.35;;
22937;SDS011;11634;42.734;23.298;2023-10-13T10:45:45;10.98;;;4.45;;
22937;SDS011;11634;42.734;23.298;2023-10-13T10:48:11;6.13;;;4.53;;
22937;SDS011;11634;42.734;23.298;2023-10-13T10:50:44;10.07;;;4.63;;
22937;SDS011;11634;42.734;23.298;2023-10-13T10:53:19;13.88;;;5.07;;
22937;SDS011;11634;42.734;23.298;2023-10-13T10:55:45;8.35;;;4.00;;
22937;SDS011;11634;42.734;23.298;2023-10-13T10:58:13;9.95;;;4.82;;
22937;SDS011;11634;42.734;23.298;2023-10-13T11:01:06;10.13;;;4.40;;
22937;SDS011;11634;42.734;23.298;2023-10-13T11:03:56;6.38;;;4.28;;
22937;SDS011;11634;42.734;23.298;2023-10-13T11:06:32;4.35;;;3.80;;
22937;SDS011;11634;42.734;23.298;2023-10-13T11:09:06;10.93;;;3.40;;
22937;SDS011;11634;42.734;23.298;2023-10-13T11:11:47;8.35;;;2.92;;
22937;SDS011;11634;42.734;23.298;2023-10-13T11:14:35;10.82;;;3.78;;
22937;SDS011;11634;42.734;23.298;2023-10-13T11:17:04;6.60;;;3.25;;
22937;SDS011;11634;42.734;23.298;2023-10-13T11:22:16;9.73;;;3.03;;
22937;SDS011;11634;42.734;23.298;2023-10-13T11:25:04;6.80;;;3.10;;
22937;SDS011;11634;42.734;23.298;2023-10-13T11:27:35;7.47;;;3.13;;
22937;SDS011;11634;42.734;23.298;2023-10-13T11:30:12;6.05;;;3.25;;
22937;SDS011;11634;42.734;23.298;2023-10-13T11:32:45;6.97;;;3.10;;
22937;SDS011;11634;42.734;23.298;2023-10-13T11:35:13;5.78;;;3.08;;
22937;SDS011;11634;42.734;23.298;2023-10-13T11:37:51;5.55;;;3.33;;
22937;SDS011;11634;42.734;23.298;2023-10-13T11:40:40;5.15;;;2.70;;
22937;SDS011;11634;42.734;23.298;2023-10-13T11:43:09;5.78;;;2.92;;
22937;SDS011;11634;42.734;23.298;2023-10-13T11:45:40;8.30;;;3.15;;
22937;SDS011;11634;42.734;23.298;2023-10-13T11:48:21;7.18;;;3.15;;
22937;SDS011;11634;42.734;23.298;2023-10-13T11:51:02;11.25;;;3.33;;
22937;SDS011;11634;42.734;23.298;2023-10-13T11:53:34;9.25;;;3.40;;
22937;SDS011;11634;42.734;23.298;2023-10-13T11:56:03;6.22;;;3.10;;
22937;SDS011;11634;42.734;23.298;2023-10-13T11:58:39;3.95;;;2.42;;
22937;SDS011;11634;42.734;23.298;2023-10-13T12:01:05;6.60;;;2.97;;
22937;SDS011;11634;42.734;23.298;2023-10-13T12:03:46;6.53;;;2.97;;
22937;SDS011;11634;42.734;23.298;2023-10-13T12:06:31;7.00;;;3.42;;
22937;SDS011;11634;42.734;23.298;2023-10-13T12:09:07;8.73;;;3.10;;
22937;SDS011;11634;42.734;23.298;2023-10-13T12:12:15;4.50;;;2.65;;
22937;SDS011;11634;42.734;23.298;2023-10-13T12:14:40;5.38;;;2.75;;
22937;SDS011;11634;42.734;23.298;2023-10-13T12:17:18;8.02;;;2.80;;
22937;SDS011;11634;42.734;23.298;2023-10-13T12:19:53;15.20;;;3.42;;
22937;SDS011;11634;42.734;23.298;2023-10-13T12:22:20;7.53;;;3.00;;
22937;SDS011;11634;42.734;23.298;2023-10-13T12:25:15;6.82;;;2.80;;
22937;SDS011;11634;42.734;23.298;2023-10-13T12:28:00;6.97;;;3.22;;
22937;SDS011;11634;42.734;23.298;2023-10-13T12:30:44;5.03;;;3.03;;
22937;SDS011;11634;42.734;23.298;2023-10-13T12:33:19;5.38;;;2.45;;
22937;SDS011;11634;42.734;23.298;2023-10-13T12:36:02;7.32;;;2.70;;
22937;SDS011;11634;42.734;23.298;2023-10-13T12:38:39;4.60;;;2.78;;
22937;SDS011;11634;42.734;23.298;2023-10-13T12:41:11;11.18;;;3.38;;
22937;SDS011;11634;42.734;23.298;2023-10-13T12:43:55;9.50;;;3.35;;
22937;SDS011;11634;42.734;23.298;2023-10-13T12:46:39;8.07;;;3.08;;
22937;SDS011;11634;42.734;23.298;2023-10-13T12:49:23;9.10;;;3.42;;
22937;SDS011;11634;42.734;23.298;2023-10-13T12:52:08;9.90;;;3.10;;
22937;SDS011;11634;42.734;23.298;2023-10-13T12:54:44;5.53;;;3.13;;
22937;SDS011;11634;42.734;23.298;2023-10-13T12:57:15;5.32;;;2.92;;
22937;SDS011;11634;42.734;23.298;2023-10-13T12:59:41;6.78;;;3.45;;
22937;SDS011;11634;42.734;23.298;2023-10-13T13:02:06;5.05;;;2.53;;
22937;SDS011;11634;42.734;23.298;2023-10-13T13:04:32;12.02;;;3.55;;
22937;SDS011;11634;42.734;23.298;2023-10-13T13:07:02;6.03;;;3.47;;
22937;SDS011;11634;42.734;23.298;2023-10-13T13:09:30;6.80;;;2.95;;
22937;SDS011;11634;42.734;23.298;2023-10-13T13:11:56;7.93;;;3.17;;
22937;SDS011;11634;42.734;23.298;2023-10-13T13:14:25;7.93;;;2.88;;
22937;SDS011;11634;42.734;23.298;2023-10-13T13:16:57;8.25;;;3.53;;
22937;SDS011;11634;42.734;23.298;2023-10-13T13:22:00;5.80;;;2.60;;
22937;SDS011;11634;42.734;23.298;2023-10-13T13:24:25;6.03;;;3.03;;
22937;SDS011;11634;42.734;23.298;2023-10-13T13:26:55;6.13;;;2.90;;
22937;SDS011;11634;42.734;23.298;2023-10-13T13:29:20;5.88;;;3.00;;
22937;SDS011;11634;42.734;23.298;2023-10-13T13:31:46;9.85;;;3.10;;
22937;SDS011;11634;42.734;23.298;2023-10-13T13:34:12;6.20;;;3.15;;
22937;SDS011;11634;42.734;23.298;2023-10-13T13:36:40;6.18;;;2.83;;
22937;SDS011;11634;42.734;23.298;2023-10-13T13:39:10;7.88;;;3.15;;
22937;SDS011;11634;42.734;23.298;2023-10-13T13:41:36;11.45;;;3.63;;
22937;SDS011;11634;42.734;23.298;2023-10-13T13:44:01;7.03;;;2.95;;
22937;SDS011;11634;42.734;23.298;2023-10-13T13:46:38;4.80;;;2.65;;
22937;SDS011;11634;42.734;23.298;2023-10-13T13:49:06;9.18;;;3.40;;
22937;SDS011;11634;42.734;23.298;2023-10-13T13:51:33;8.35;;;3.30;;
22937;SDS011;11634;42.734;23.298;2023-10-13T13:54:00;5.43;;;3.13;;
22937;SDS011;11634;42.734;23.298;2023-10-13T13:56:25;6.72;;;3.50;;
22937;SDS011;11634;42.734;23.298;2023-10-13T13:58:52;6.32;;;3.00;;
22937;SDS011;11634;42.734;23.298;2023-10-13T14:01:19;6.65;;;2.60;;
22937;SDS011;11634;42.734;23.298;2023-10-13T14:03:47;10.25;;;3.50;;
22937;SDS011;11634;42.734;23.298;2023-10-13T14:06:13;10.02;;;3.08;;
22937;SDS011;11634;42.734;23.298;2023-10-13T14:08:46;6.18;;;2.80;;
22937;SDS011;11634;42.734;23.298;2023-10-13T14:11:19;8.50;;;3.40;;
22937;SDS011;11634;42.734;23.298;2023-10-13T14:14:11;12.18;;;3.50;;
22937;SDS011;11634;42.734;23.298;2023-10-13T14:16:41;8.52;;;3.70;;
22937;SDS011;11634;42.734;23.298;2023-10-13T14:19:13;7.35;;;3.67;;
22937;SDS011;11634;42.734;23.298;2023-10-13T14:21:44;7.65;;;3.40;;
22937;SDS011;11634;42.734;23.298;2023-10-13T14:24:10;11.13;;;3.83;;
22937;SDS011;11634;42.734;23.298;2023-10-13T14:26:44;6.72;;;3.25;;
22937;SDS011;11634;42.734;23.298;2023-10-13T14:29:11;7.13;;;3.60;;
22937;SDS011;11634;42.734;23.298;2023-10-13T14:31:39;9.32;;;3.42;;
22937;SDS011;11634;42.734;23.298;2023-10-13T14:34:05;5.93;;;3.85;;
22937;SDS011;11634;42.734;23.298;2023-10-13T14:36:32;10.70;;;4.22;;
22937;SDS011;11634;42.734;23.298;2023-10-13T14:39:01;7.78;;;3.90;;
22937;SDS011;11634;42.734;23.298;2023-10-13T14:41:27;8.95;;;4.20;;
22937;SDS011;11634;42.734;23.298;2023-10-13T14:43:53;7.28;;;3.53;;
22937;SDS011;11634;42.734;23.298;2023-10-13T14:46:21;8.45;;;4.22;;
22937;SDS011;11634;42.734;23.298;2023-10-13T14:48:48;9.73;;;3.83;;
22937;SDS011;11634;42.734;23.298;2023-10-13T14:51:14;7.65;;;3.90;;
22937;SDS011;11634;42.734;23.298;2023-10-13T14:53:42;6.90;;;3.88;;
22937;SDS011;11634;42.734;23.298;2023-10-13T14:56:09;7.13;;;3.25;;
22937;SDS011;11634;42.734;23.298;2023-10-13T14:58:35;6.85;;;2.83;;
22937;SDS011;11634;42.734;23.298;2023-10-13T15:01:09;7.45;;;3.50;;
22937;SDS011;11634;42.734;23.298;2023-10-13T15:03:35;7.10;;;3.70;;
22937;SDS011;11634;42.734;23.298;2023-10-13T15:06:03;9.20;;;3.25;;
22937;SDS011;11634;42.734;23.298;2023-10-13T15:08:29;6.35;;;3.03;;
22937;SDS011;11634;42.734;23.298;2023-10-13T15:10:55;8.27;;;2.78;;
22937;SDS011;11634;42.734;23.298;2023-10-13T15:13:20;7.63;;;3.13;;